Time;durP1;ratioP1;P1;durP2;ratioP2;P2;SDS_P1;SDS_P2;PMS_P1;PMS_P2;Temp;Humidity;BMP_temperature;BMP_pressure;BME280_temperature;BME280_humidity;BME280_pressure;Samples;Min_cycle;Max_cycle;Signal;HPM_P1;HPM_P2
2022/11/22 00:00:19;;;;;;;;;8.50;6.50;;;;;7.09;65.29;99094.31;6340118;22;45280;-61
2022/11/22 00:02:45;;;;;;;;;4.50;4.50;;;;;7.11;65.59;99095.97;6342040;22;45257;-61
2022/11/22 00:05:11;;;;;;;;;7.50;4.75;;;;;7.05;65.37;99092.69;6341985;22;45216;-61
2022/11/22 00:07:37;;;;;;;;;3.50;3.00;;;;;7.06;65.46;99092.63;6342392;22;45255;-61
2022/11/22 00:10:04;;;;;;;;;5.50;3.00;;;;;7.05;65.49;99088.31;6341675;22;45413;-61
2022/11/22 00:12:30;;;;;;;;;5.75;4.00;;;;;6.97;65.38;99085.91;6341922;22;46577;-61
2022/11/22 00:14:55;;;;;;;;;2.00;2.00;;;;;7.01;65.60;99091.91;6341720;22;45235;-62
2022/11/22 00:17:20;;;;;;;;;4.00;3.00;;;;;6.96;65.72;99083.34;6342849;22;45210;-61
2022/11/22 00:19:46;;;;;;;;;4.50;4.00;;;;;6.94;65.60;99092.94;6341214;22;45170;-61
2022/11/22 00:22:11;;;;;;;;;3.25;2.75;;;;;6.91;65.48;99090.44;6341907;22;46110;-61
2022/11/22 00:24:36;;;;;;;;;4.50;2.00;;;;;6.92;65.64;99097.38;6342089;22;45182;-61
2022/11/22 00:27:02;;;;;;;;;2.75;2.75;;;;;6.86;65.91;99094.91;6342028;22;45198;-61
2022/11/22 00:29:27;;;;;;;;;2.25;1.50;;;;;6.83;65.73;99101.91;6341958;22;45453;-61
2022/11/22 00:31:52;;;;;;;;;4.25;4.25;;;;;6.81;65.74;99088.03;6341296;22;46204;-61
2022/11/22 00:34:18;;;;;;;;;4.25;3.25;;;;;6.82;65.67;99094.13;6341838;22;45148;-61
2022/11/22 00:36:43;;;;;;;;;3.00;3.00;;;;;6.78;65.62;99090.72;6342238;22;45141;-61
2022/11/22 00:39:08;;;;;;;;;4.00;2.50;;;;;6.76;65.50;99084.69;6341742;22;45092;-61
2022/11/22 00:41:34;;;;;;;;;4.75;2.75;;;;;6.79;65.64;99082.00;6341784;22;45254;-61
2022/11/22 00:43:59;;;;;;;;;4.50;3.25;;;;;6.72;65.63;99077.84;6341647;22;45171;-61
2022/11/22 00:46:24;;;;;;;;;4.00;3.00;;;;;6.69;65.75;99071.81;6340034;22;45228;-61
2022/11/22 00:48:50;;;;;;;;;8.75;4.25;;;;;6.70;65.64;99077.00;6340817;22;45481;-61
2022/11/22 00:51:15;;;;;;;;;2.75;2.00;;;;;6.71;65.74;99086.56;6341669;22;45325;-62
2022/11/22 00:53:40;;;;;;;;;4.25;4.00;;;;;6.71;65.69;99086.56;6340189;22;45303;-61
2022/11/22 00:56:06;;;;;;;;;3.25;2.00;;;;;6.69;65.93;99093.56;6342156;22;45261;-61
2022/11/22 00:58:31;;;;;;;;;4.00;3.25;;;;;6.63;65.78;99085.91;6341463;22;45394;-61
2022/11/22 01:00:56;;;;;;;;;6.00;3.00;;;;;6.60;65.65;99088.56;6341318;22;46966;-61
2022/11/22 01:03:22;;;;;;;;;5.75;2.00;;;;;6.59;65.53;99090.34;6341527;22;45272;-61
2022/11/22 01:05:47;;;;;;;;;3.50;2.00;;;;;6.59;65.74;99092.94;6341901;22;45311;-61
2022/11/22 01:08:12;;;;;;;;;3.75;2.00;;;;;6.55;65.85;99101.72;6341938;22;45307;-61
2022/11/22 01:10:38;;;;;;;;;5.00;3.00;;;;;6.55;65.78;99093.03;6342206;22;45262;-61
2022/11/22 01:13:04;;;;;;;;;4.25;2.00;;;;;6.54;65.58;99099.16;6341780;22;45263;-61
2022/11/22 01:15:29;;;;;;;;;6.00;4.50;;;;;6.53;65.81;99084.38;6342076;22;45250;-61
2022/11/22 01:17:54;;;;;;;;;3.75;3.00;;;;;6.49;65.96;99087.09;6341905;22;45269;-61
2022/11/22 01:20:20;;;;;;;;;3.25;3.25;;;;;6.48;65.51;99087.97;6341595;22;45171;-61
2022/11/22 01:22:45;;;;;;;;;3.00;2.00;;;;;6.49;65.84;99076.63;6341933;22;45275;-61
2022/11/22 01:25:11;;;;;;;;;3.00;1.00;;;;;6.37;65.83;99069.09;6342282;22;45278;-61
2022/11/22 01:27:36;;;;;;;;;3.00;3.00;;;;;6.45;66.11;99085.44;6339751;22;45568;-61
2022/11/22 01:30:02;;;;;;;;;2.25;2.25;;;;;6.40;65.71;99081.22;6341842;22;45463;-61
2022/11/22 01:32:28;;;;;;;;;5.75;3.00;;;;;6.40;65.85;99083.81;6341900;22;45172;-61
2022/11/22 01:34:53;;;;;;;;;1.50;1.50;;;;;6.41;66.28;99088.16;6341396;22;45190;-61
2022/11/22 01:37:18;;;;;;;;;3.50;2.75;;;;;6.37;65.96;99073.47;6341357;22;45433;-61
2022/11/22 01:39:44;;;;;;;;;4.00;3.00;;;;;6.41;66.08;99075.94;6341410;22;45277;-61
2022/11/22 01:42:10;;;;;;;;;1.50;1.50;;;;;6.37;66.15;99071.72;6341638;22;45076;-62
2022/11/22 01:44:39;;;;;;;;;2.00;2.00;;;;;6.36;66.44;99077.81;6341458;22;45155;-61
2022/11/22 01:47:18;;;;;;;;;2.75;2.75;;;;;6.38;66.34;99067.34;6341247;22;45458;-62
2022/11/22 01:49:50;;;;;;;;;1.75;1.25;;;;;6.35;66.37;99078.72;6339829;22;45356;-61
2022/11/22 01:52:22;;;;;;;;;5.50;1.00;;;;;6.43;66.23;99089.00;6341880;22;45244;-61
2022/11/22 01:54:54;;;;;;;;;2.00;1.00;;;;;6.43;65.82;99084.63;6339834;22;45354;-61
2022/11/22 01:57:24;;;;;;;;;4.00;2.25;;;;;6.41;66.41;99082.94;6341875;22;45234;-61
2022/11/22 01:59:55;;;;;;;;;2.75;2.75;;;;;6.46;66.41;99079.31;6340841;22;45273;-62
2022/11/22 02:02:21;;;;;;;;;3.25;1.75;;;;;6.50;65.85;99067.94;6340268;22;45498;-61
2022/11/22 02:04:48;;;;;;;;;3.50;2.50;;;;;6.55;66.18;99074.78;6341541;22;45614;-61
2022/11/22 02:07:17;;;;;;;;;6.75;3.00;;;;;6.52;66.10;99072.25;6340391;22;45246;-61
2022/11/22 02:09:45;;;;;;;;;3.25;2.75;;;;;6.55;66.31;99066.94;6341080;22;45332;-61
2022/11/22 02:12:12;;;;;;;;;2.50;2.00;;;;;6.59;66.35;99065.97;6341286;22;45183;-61
2022/11/22 02:14:39;;;;;;;;;3.50;1.00;;;;;6.62;66.29;99085.03;6341487;22;45311;-61
2022/11/22 02:17:04;;;;;;;;;2.75;2.50;;;;;6.63;66.30;99065.03;6341363;22;45232;-62
2022/11/22 02:19:43;;;;;;;;;1.50;1.50;;;;;6.65;66.29;99068.44;6341034;22;46259;-61
2022/11/22 02:22:41;;;;;;;;;2.00;1.00;;;;;6.63;66.18;99060.66;6341643;22;45395;-62
2022/11/22 02:25:35;;;;;;;;;7.25;3.00;;;;;6.61;66.53;99054.59;6341922;22;45263;-61
2022/11/22 02:28:01;;;;;;;;;5.00;3.00;;;;;6.66;66.25;99038.81;6341196;22;45242;-61
2022/11/22 02:30:26;;;;;;;;;2.25;1.00;;;;;6.65;66.47;99026.66;6341135;22;45351;-62
2022/11/22 02:32:52;;;;;;;;;3.00;1.00;;;;;6.64;66.28;99036.25;6339412;22;45278;-61
2022/11/22 02:35:20;;;;;;;;;3.50;1.75;;;;;6.63;66.19;99023.25;6341595;22;45324;-62
2022/11/22 02:37:53;;;;;;;;;1.00;1.00;;;;;6.64;66.35;99046.69;6341376;22;45242;-62
2022/11/22 02:40:20;;;;;;;;;2.25;1.00;;;;;6.64;66.46;99051.03;6340823;22;46373;-61
2022/11/22 02:42:54;;;;;;;;;2.50;1.50;;;;;6.67;66.24;99038.78;6340712;22;45384;-61
2022/11/22 02:45:20;;;;;;;;;2.50;1.75;;;;;6.61;66.49;99035.47;6339388;22;45321;-62
2022/11/22 02:47:45;;;;;;;;;2.50;1.00;;;;;6.64;66.35;99035.38;6340959;22;45319;-62
2022/11/22 02:50:10;;;;;;;;;2.00;2.00;;;;;6.65;66.57;99031.88;6340455;22;46096;-62
2022/11/22 02:52:35;;;;;;;;;2.00;1.00;;;;;6.67;66.53;99030.09;6341381;22;45252;-62
2022/11/22 02:55:01;;;;;;;;;5.50;1.75;;;;;6.71;66.50;99034.34;6341657;22;45140;-62
2022/11/22 02:57:26;;;;;;;;;2.75;2.00;;;;;6.69;66.61;99022.22;6341283;22;45266;-62
2022/11/22 02:59:51;;;;;;;;;0.25;0.25;;;;;6.74;66.52;99022.97;6338571;22;54520;-62
2022/11/22 03:02:17;;;;;;;;;2.00;1.50;;;;;6.77;66.62;99010.69;6344041;22;45116;-62
2022/11/22 03:04:42;;;;;;;;;2.00;1.00;;;;;6.79;66.62;99018.47;6344847;22;45085;-62
2022/11/22 03:07:07;;;;;;;;;2.75;1.50;;;;;6.76;66.25;99015.97;6342818;22;50202;-62
2022/11/22 03:09:32;;;;;;;;;1.25;1.00;;;;;6.80;66.50;99012.34;6343045;22;45927;-62
2022/11/22 03:11:58;;;;;;;;;1.50;1.50;;;;;6.77;66.40;99002.84;6344344;22;52610;-62
2022/11/22 03:14:24;;;;;;;;;2.75;2.00;;;;;6.75;66.41;99007.25;6344566;22;45186;-62
2022/11/22 03:16:50;;;;;;;;;3.00;1.50;;;;;6.75;66.55;98996.81;6344797;22;45170;-62
2022/11/22 03:19:15;;;;;;;;;3.00;1.00;;;;;6.80;66.64;99004.53;6343580;22;46187;-62
2022/11/22 03:21:42;;;;;;;;;2.00;2.00;;;;;6.80;66.36;98994.09;6344659;22;45109;-62
2022/11/22 03:24:08;;;;;;;;;3.00;2.25;;;;;6.84;66.71;98995.69;6343881;22;45300;-62
2022/11/22 03:26:34;;;;;;;;;2.00;1.00;;;;;6.81;66.27;98991.41;6344290;22;45255;-62
2022/11/22 03:29:00;;;;;;;;;5.25;1.00;;;;;6.83;66.69;98989.63;6343689;22;47238;-61
2022/11/22 03:31:26;;;;;;;;;2.00;1.00;;;;;6.89;66.48;98987.75;6344559;22;45338;-62
2022/11/22 03:33:51;;;;;;;;;1.00;1.00;;;;;6.87;66.72;98984.31;6344015;22;45306;-62
2022/11/22 03:36:17;;;;;;;;;3.50;1.50;;;;;6.89;66.46;98987.75;6344033;22;45352;-62
2022/11/22 03:38:42;;;;;;;;;1.00;1.00;;;;;6.88;66.66;98976.47;6344178;22;46328;-62
2022/11/22 03:41:07;;;;;;;;;1.00;1.00;;;;;6.92;66.96;98985.09;6344503;22;45270;-62
2022/11/22 03:43:33;;;;;;;;;0.00;0.00;;;;;6.94;66.78;98994.59;6344420;22;45163;-62
2022/11/22 03:45:58;;;;;;;;;1.00;1.00;;;;;6.91;66.72;98986.81;6344505;22;45178;-62
2022/11/22 03:48:23;;;;;;;;;1.50;1.00;;;;;6.98;66.98;98992.72;6343706;22;45293;-62
2022/11/22 03:50:49;;;;;;;;;1.00;1.00;;;;;6.99;66.95;98994.44;6344469;22;45154;-62
2022/11/22 03:53:14;;;;;;;;;0.00;0.00;;;;;7.05;67.13;98996.88;6344401;22;45194;-62
2022/11/22 03:55:39;;;;;;;;;1.75;1.75;;;;;7.06;67.04;98993.38;6344377;22;45178;-62
2022/11/22 03:58:05;;;;;;;;;2.50;1.00;;;;;7.12;66.87;98997.59;6343830;22;45356;-62
2022/11/22 04:00:31;;;;;;;;;2.50;1.00;;;;;7.15;67.04;98985.28;6344288;22;45207;-62
2022/11/22 04:02:56;;;;;;;;;0.25;0.25;;;;;7.15;66.95;98969.59;6343277;22;45250;-61
2022/11/22 04:05:22;;;;;;;;;2.00;2.00;;;;;7.21;66.93;98991.22;6344414;22;45313;-61
2022/11/22 04:07:47;;;;;;;;;1.75;1.25;;;;;7.21;67.13;98997.31;6343934;22;46191;-61
2022/11/22 04:10:13;;;;;;;;;1.75;1.50;;;;;7.24;67.21;98999.00;6343646;22;45199;-61
2022/11/22 04:12:39;;;;;;;;;1.75;1.25;;;;;7.25;67.29;98987.66;6343390;22;45401;-61
2022/11/22 04:15:07;;;;;;;;;2.75;0.25;;;;;7.29;67.10;98991.88;6342343;22;45310;-61
2022/11/22 04:17:39;;;;;;;;;1.25;1.25;;;;;7.30;67.23;98990.97;6341921;22;45910;-62
2022/11/22 04:23:15;;;;;;;;;0.25;0.00;;;;;7.35;67.27;98996.09;6342235;22;45227;-62
2022/11/22 04:25:42;;;;;;;;;1.50;1.00;;;;;7.36;67.17;98993.41;6342251;22;45097;-62
2022/11/22 04:28:10;;;;;;;;;2.00;2.00;;;;;7.41;67.18;98988.91;6341778;22;45346;-62
2022/11/22 04:33:21;;;;;;;;;1.00;1.00;;;;;7.43;66.94;98955.75;6342111;22;45313;-62
2022/11/22 04:35:46;;;;;;;;;1.50;0.50;;;;;7.43;67.18;98973.19;6341977;22;45120;-61
2022/11/22 04:38:13;;;;;;;;;2.50;2.50;;;;;7.44;67.28;98967.06;6341955;22;45139;-61
2022/11/22 04:40:38;;;;;;;;;3.00;2.00;;;;;7.42;66.97;98961.00;6341751;22;45092;-61
2022/11/22 04:45:49;;;;;;;;;0.75;0.00;;;;;7.47;66.65;98957.38;6342422;22;45159;-62
2022/11/22 04:48:15;;;;;;;;;1.75;0.25;;;;;7.46;67.08;98963.50;6341684;22;45260;-62
2022/11/22 04:53:26;;;;;;;;;1.00;1.00;;;;;7.53;67.19;98965.94;6342084;22;45348;-61
2022/11/22 04:55:51;;;;;;;;;2.50;1.00;;;;;7.53;67.22;98958.09;6341963;22;45352;-62
2022/11/22 04:58:17;;;;;;;;;2.00;1.00;;;;;7.53;66.78;98964.16;6341633;22;45948;-61
2022/11/22 05:00:43;;;;;;;;;3.00;1.00;;;;;7.54;66.70;98955.41;6341641;22;45542;-61
2022/11/22 05:03:09;;;;;;;;;1.50;0.75;;;;;7.58;67.33;98966.63;6341627;22;45208;-61
2022/11/22 05:05:39;;;;;;;;;3.50;0.00;;;;;7.64;67.21;98962.06;6342059;22;45245;-61
2022/11/22 05:08:06;;;;;;;;;3.00;1.50;;;;;7.64;67.30;98959.47;6341338;22;46097;-61
2022/11/22 05:10:55;;;;;;;;;0.25;0.25;;;;;7.72;67.20;98964.47;6339869;22;45272;-62
2022/11/22 05:13:20;;;;;;;;;2.00;0.25;;;;;7.71;66.89;98957.53;6341300;22;45242;-61
2022/11/22 05:15:46;;;;;;;;;1.75;1.00;;;;;7.66;66.80;98948.97;6342097;22;45253;-61
2022/11/22 05:18:11;;;;;;;;;0.25;0.25;;;;;7.70;67.26;98961.03;6341475;22;45552;-61
2022/11/22 05:20:37;;;;;;;;;0.75;0.75;;;;;7.78;67.29;98960.78;6342063;22;45138;-61
2022/11/22 05:25:46;;;;;;;;;1.00;1.00;;;;;7.78;67.05;98960.78;6341224;22;45331;-61
2022/11/22 05:28:12;;;;;;;;;1.00;1.00;;;;;7.84;66.99;98957.16;6341170;22;50698;-61
2022/11/22 05:30:38;;;;;;;;;0.00;0.00;;;;;7.85;66.78;98954.47;6339384;22;47059;-61
2022/11/22 05:33:03;;;;;;;;;1.75;1.00;;;;;7.89;67.03;98957.84;6341892;22;45178;-61
2022/11/22 05:35:29;;;;;;;;;1.00;1.00;;;;;7.87;67.08;98960.50;6341178;22;45388;-61
2022/11/22 05:37:55;;;;;;;;;1.50;0.25;;;;;7.90;67.14;98955.19;6341774;22;45439;-61
2022/11/22 05:40:21;;;;;;;;;2.25;0.50;;;;;7.91;67.13;98956.03;6341506;22;45257;-61
2022/11/22 05:42:46;;;;;;;;;1.00;1.00;;;;;7.93;67.03;98964.69;6342037;22;45412;-61
2022/11/22 05:45:11;;;;;;;;;0.00;0.00;;;;;7.91;67.17;98948.19;6341892;22;45289;-61
2022/11/22 05:47:37;;;;;;;;;3.25;2.00;;;;;7.90;67.30;98949.09;6341695;22;46120;-62
2022/11/22 05:50:03;;;;;;;;;4.00;0.25;;;;;7.96;67.00;98955.00;6340944;22;45330;-61
2022/11/22 05:52:29;;;;;;;;;3.25;1.50;;;;;7.98;67.33;98962.78;6340560;22;45288;-61
2022/11/22 05:54:54;;;;;;;;;2.75;1.00;;;;;7.94;67.17;98958.56;6341843;22;45234;-61
2022/11/22 05:57:20;;;;;;;;;1.75;1.75;;;;;7.90;67.28;98957.81;6341308;22;47276;-61
2022/11/22 05:59:46;;;;;;;;;2.00;0.00;;;;;7.90;67.68;98967.41;6339286;22;45267;-62
2022/11/22 06:02:11;;;;;;;;;2.75;2.75;;;;;7.92;67.55;98965.59;6342186;22;45171;-62
2022/11/22 06:04:36;;;;;;;;;1.75;1.00;;;;;7.91;67.58;98963.88;6341508;22;45423;-62
2022/11/22 06:07:02;;;;;;;;;2.00;0.00;;;;;7.92;67.64;98973.44;6341892;22;45161;-62
2022/11/22 06:09:27;;;;;;;;;2.50;1.00;;;;;7.92;67.59;98973.44;6341739;22;45290;-62
2022/11/22 06:11:52;;;;;;;;;0.25;0.25;;;;;7.90;67.64;98962.16;6341985;22;45124;-62
2022/11/22 06:14:17;;;;;;;;;2.75;2.75;;;;;7.85;67.64;98958.84;6341189;22;50169;-61
2022/11/22 06:16:43;;;;;;;;;2.00;1.00;;;;;7.88;67.63;98959.59;6341726;22;46038;-62
2022/11/22 06:19:08;;;;;;;;;3.50;1.00;;;;;7.85;67.55;98962.31;6340523;22;45190;-62
2022/11/22 06:21:34;;;;;;;;;3.25;2.00;;;;;7.87;67.79;98962.28;6341812;22;45217;-62
2022/11/22 06:23:59;;;;;;;;;2.75;2.00;;;;;7.86;68.14;98966.66;6341299;22;47236;-62
2022/11/22 06:26:25;;;;;;;;;3.50;1.00;;;;;7.87;67.87;98959.66;6340860;22;48545;-62
2022/11/22 06:28:51;;;;;;;;;1.75;1.75;;;;;7.88;67.65;98962.22;6340498;22;45185;-62
2022/11/22 06:31:17;;;;;;;;;2.00;1.00;;;;;7.93;67.84;98965.53;6341647;22;45177;-62
2022/11/22 06:33:43;;;;;;;;;1.00;1.00;;;;;7.92;67.76;98971.69;6341566;22;45209;-62
2022/11/22 06:36:11;;;;;;;;;3.00;1.00;;;;;7.93;67.95;98973.38;6341006;22;45345;-62
2022/11/22 06:38:37;;;;;;;;;2.50;1.50;;;;;7.93;68.13;98969.94;6341483;22;45255;-62
2022/11/22 06:41:08;;;;;;;;;1.25;1.00;;;;;7.94;68.01;98974.25;6341467;22;45305;-62
2022/11/22 06:43:34;;;;;;;;;3.50;3.50;;;;;7.93;67.97;98976.00;6340799;22;45375;-62
2022/11/22 06:46:01;;;;;;;;;3.25;2.00;;;;;7.89;67.84;98974.41;6341342;22;45278;-62
2022/11/22 06:48:32;;;;;;;;;4.00;3.00;;;;;7.84;67.89;98978.06;6340642;22;45355;-61
2022/11/22 06:51:10;;;;;;;;;2.00;2.00;;;;;7.85;68.15;98979.75;6341587;22;45263;-61
2022/11/22 06:53:36;;;;;;;;;2.00;2.00;;;;;7.89;68.02;98984.84;6341406;22;45492;-62
2022/11/22 06:56:14;;;;;;;;;3.25;2.00;;;;;7.85;68.57;98975.41;6340969;22;45534;-62
2022/11/22 06:58:40;;;;;;;;;2.75;1.75;;;;;7.90;68.20;98985.69;6340556;22;45234;-61
2022/11/22 07:01:10;;;;;;;;;2.75;1.25;;;;;7.94;68.23;98980.34;6341422;22;45211;-62
2022/11/22 07:03:40;;;;;;;;;0.50;0.00;;;;;7.95;68.14;98989.06;6340473;22;45451;-62
2022/11/22 07:06:06;;;;;;;;;4.25;2.25;;;;;7.97;68.12;98984.63;6340788;22;45406;-62
2022/11/22 07:08:32;;;;;;;;;3.00;1.00;;;;;7.93;68.14;98998.69;6338889;22;45354;-64
2022/11/22 07:11:10;;;;;;;;;1.00;1.00;;;;;7.99;68.14;98990.66;6341206;22;45196;-61
2022/11/22 07:13:36;;;;;;;;;5.00;3.25;;;;;7.98;68.26;98992.41;6341140;22;45258;-62
2022/11/22 07:16:03;;;;;;;;;4.25;2.00;;;;;8.02;67.68;98995.78;6340619;22;46469;-61
2022/11/22 07:18:29;;;;;;;;;2.00;1.00;;;;;8.04;68.01;98996.59;6340566;22;45232;-62
2022/11/22 07:21:02;;;;;;;;;2.25;1.00;;;;;8.03;68.11;99000.13;6338815;22;45205;-61
2022/11/22 07:23:28;;;;;;;;;2.00;1.00;;;;;8.05;68.27;99000.06;6341131;22;45435;-61
2022/11/22 07:25:53;;;;;;;;;1.00;1.00;;;;;8.10;68.13;98996.41;6338664;22;47155;-61
2022/11/22 07:28:19;;;;;;;;;1.00;0.50;;;;;8.13;68.08;99013.78;6340750;22;45160;-61
2022/11/22 07:30:44;;;;;;;;;2.00;1.00;;;;;8.14;68.27;98999.78;6341285;22;45333;-62
2022/11/22 07:33:10;;;;;;;;;2.75;2.00;;;;;8.13;68.01;99027.69;6341023;22;45088;-61
2022/11/22 07:35:35;;;;;;;;;1.00;1.00;;;;;8.16;68.60;99018.91;6340822;22;45263;-62
2022/11/22 07:38:02;;;;;;;;;1.50;1.00;;;;;8.14;68.27;99036.41;6340802;22;45460;-61
2022/11/22 07:40:27;;;;;;;;;4.75;1.25;;;;;8.18;68.62;99024.09;6341503;22;45222;-62
2022/11/22 07:42:53;;;;;;;;;2.50;1.00;;;;;8.21;68.37;99053.63;6340814;22;45407;-61
2022/11/22 07:45:18;;;;;;;;;2.75;1.00;;;;;8.14;68.40;99039.03;6340977;22;46352;-61
2022/11/22 07:47:44;;;;;;;;;1.00;1.00;;;;;8.12;68.53;99057.38;6340988;22;45241;-61
2022/11/22 07:50:10;;;;;;;;;0.25;0.25;;;;;8.13;68.52;99047.78;6340274;22;45235;-62
2022/11/22 07:52:35;;;;;;;;;5.50;2.00;;;;;8.18;68.48;99042.41;6342421;22;45436;-61
2022/11/22 07:55:01;;;;;;;;;3.50;2.00;;;;;8.16;68.76;99031.13;6342261;22;46015;-61
2022/11/22 07:57:26;;;;;;;;;2.00;2.00;;;;;8.16;68.57;99033.75;6342358;22;45321;-61
2022/11/22 07:59:51;;;;;;;;;2.50;1.50;;;;;8.19;68.25;99033.63;6342400;22;45179;-61
2022/11/22 08:02:17;;;;;;;;;3.00;2.25;;;;;8.17;68.51;99044.16;6340335;22;45496;-61
2022/11/22 08:04:42;;;;;;;;;0.25;0.25;;;;;8.18;68.72;99042.41;6342086;22;46195;-61
2022/11/22 08:07:08;;;;;;;;;3.00;0.75;;;;;8.16;68.50;99042.44;6342551;22;45253;-61
2022/11/22 08:09:34;;;;;;;;;2.25;1.75;;;;;8.14;68.55;99044.28;6341914;22;45337;-61
2022/11/22 08:11:59;;;;;;;;;1.25;1.25;;;;;8.13;68.79;99055.63;6341608;22;45334;-61
2022/11/22 08:14:25;;;;;;;;;2.00;0.75;;;;;8.15;68.77;99043.38;6341537;22;46028;-61
2022/11/22 08:16:50;;;;;;;;;1.00;0.75;;;;;8.14;68.76;99039.88;6342286;22;45161;-60
2022/11/22 08:19:16;;;;;;;;;2.00;0.75;;;;;8.14;68.70;99049.50;6341673;22;45715;-60
2022/11/22 08:21:46;;;;;;;;;1.00;1.00;;;;;8.17;68.69;99043.31;6342036;22;45214;-61
2022/11/22 08:24:12;;;;;;;;;2.25;1.25;;;;;8.17;68.51;99048.56;6341590;22;47453;-61
2022/11/22 08:26:37;;;;;;;;;2.00;2.00;;;;;8.16;68.83;99037.22;6341717;22;45197;-61
2022/11/22 08:29:04;;;;;;;;;0.75;0.75;;;;;8.19;68.62;99060.69;6342294;22;45226;-61
2022/11/22 08:31:29;;;;;;;;;1.00;1.00;;;;;8.21;69.43;99055.38;6342458;22;45226;-61
2022/11/22 08:33:55;;;;;;;;;2.00;2.00;;;;;8.21;69.16;99056.22;6341602;22;46130;-61
2022/11/22 08:36:21;;;;;;;;;2.50;1.00;;;;;8.26;69.12;99054.34;6342367;22;45222;-61
2022/11/22 08:38:46;;;;;;;;;3.00;1.00;;;;;8.26;69.25;99069.19;6341802;22;45158;-60
2022/11/22 08:41:11;;;;;;;;;4.25;3.50;;;;;8.30;69.12;99061.19;6342064;22;45421;-61
2022/11/22 08:43:37;;;;;;;;;4.00;3.00;;;;;8.29;69.13;99048.16;6341747;22;49029;-61
2022/11/22 08:46:03;;;;;;;;;4.50;3.00;;;;;8.34;68.98;99071.56;6342192;22;45182;-60
2022/11/22 08:48:30;;;;;;;;;2.25;2.25;;;;;8.40;69.27;99061.78;6341584;22;45238;-60
2022/11/22 08:50:59;;;;;;;;;7.50;6.75;;;;;8.42;69.04;99057.31;6340052;22;45830;-61
2022/11/22 08:53:25;;;;;;;;;3.00;1.75;;;;;8.44;69.16;99073.00;6341662;22;45201;-62
2022/11/22 08:55:51;;;;;;;;;3.00;3.00;;;;;8.49;69.23;99078.09;6341837;22;45249;-61
2022/11/22 08:58:16;;;;;;;;;6.00;4.50;;;;;8.49;69.13;99070.25;6339809;22;45289;-60
2022/11/22 09:00:42;;;;;;;;;4.75;2.00;;;;;8.52;69.11;99070.16;6341671;22;45405;-60
2022/11/22 09:03:07;;;;;;;;;2.00;2.00;;;;;8.51;69.00;99071.06;6341156;22;46120;-60
2022/11/22 09:05:33;;;;;;;;;5.75;2.25;;;;;8.55;69.54;99064.81;6341652;22;45268;-60
2022/11/22 09:07:58;;;;;;;;;4.00;4.00;;;;;8.56;69.14;99088.31;6342129;22;45269;-60
2022/11/22 09:10:24;;;;;;;;;2.25;1.75;;;;;8.60;69.11;99089.09;6340038;22;45267;-60
2022/11/22 09:12:49;;;;;;;;;9.00;3.00;;;;;8.59;69.34;99082.13;6341183;22;46212;-61
2022/11/22 09:15:15;;;;;;;;;4.50;1.75;;;;;8.61;69.21;99080.34;6341980;22;45242;-60
2022/11/22 09:17:41;;;;;;;;;2.50;1.00;;;;;8.66;69.41;99077.56;6342039;22;45759;-60
2022/11/22 09:20:07;;;;;;;;;4.00;2.00;;;;;8.66;69.42;99075.78;6341078;22;45451;-60
2022/11/22 09:22:33;;;;;;;;;3.50;2.00;;;;;8.74;69.60;99073.78;6341133;22;47147;-61
2022/11/22 09:24:58;;;;;;;;;5.75;2.25;;;;;8.75;69.08;99078.13;6341746;22;45222;-60
2022/11/22 09:27:23;;;;;;;;;1.25;1.00;;;;;8.84;69.48;99094.44;6341667;22;45271;-60
2022/11/22 09:29:49;;;;;;;;;1.25;1.25;;;;;8.86;69.27;99085.59;6341722;22;45427;-60
2022/11/22 09:32:14;;;;;;;;;1.75;1.75;;;;;8.94;69.50;99078.38;6339421;22;45397;-60
2022/11/22 09:34:40;;;;;;;;;3.25;1.75;;;;;8.97;69.08;99076.53;6340944;22;45237;-60
2022/11/22 09:37:05;;;;;;;;;3.00;1.00;;;;;9.04;69.39;99083.28;6342161;22;45245;-60
2022/11/22 09:39:31;;;;;;;;;3.00;1.50;;;;;9.05;69.05;99096.31;6341526;22;45159;-60
2022/11/22 09:42:45;;;;;;;;;0.00;0.00;;;;;9.08;68.94;99097.97;6341585;22;45206;-60
2022/11/22 09:45:35;;;;;;;;;3.00;2.50;;;;;9.15;69.45;99101.25;6335356;22;45158;-60
2022/11/22 09:48:16;;;;;;;;;6.00;2.50;;;;;9.14;68.99;99095.16;6339460;22;45302;-60
2022/11/22 09:50:55;;;;;;;;;2.50;2.50;;;;;9.21;69.34;99111.53;6341295;22;45372;-60
2022/11/22 09:53:45;;;;;;;;;3.25;1.50;;;;;9.26;68.90;99094.72;6341582;22;45688;-60
2022/11/22 09:56:14;;;;;;;;;4.50;1.50;;;;;9.31;69.01;99122.53;6340773;22;45266;-60
2022/11/22 09:59:15;;;;;;;;;4.00;2.00;;;;;9.31;68.79;99091.94;6341490;22;45402;-63
2022/11/22 10:01:50;;;;;;;;;1.00;1.00;;;;;9.35;68.72;99085.69;6336350;22;45449;-60
2022/11/22 10:04:34;;;;;;;;;5.50;1.00;;;;;9.40;68.70;99089.00;6340730;22;46267;-60
2022/11/22 10:07:16;;;;;;;;;5.50;2.00;;;;;9.44;68.51;99093.22;6341768;22;45165;-60
2022/11/22 10:10:02;;;;;;;;;1.00;1.00;;;;;9.53;68.39;99104.28;6341696;22;45151;-60
2022/11/22 10:12:40;;;;;;;;;5.00;1.50;;;;;9.58;68.42;99102.34;6339430;22;45151;-60
2022/11/22 10:15:19;;;;;;;;;1.75;1.75;;;;;9.68;68.44;99106.34;6340620;22;46129;-60
2022/11/22 10:17:58;;;;;;;;;2.00;0.75;;;;;9.79;68.32;99102.50;6341369;22;45200;-59
2022/11/22 10:20:29;;;;;;;;;6.50;2.00;;;;;9.88;67.99;99102.16;6341111;22;45169;-60
2022/11/22 10:22:56;;;;;;;;;3.00;2.00;;;;;9.93;68.00;99101.03;6341311;22;45230;-60
2022/11/22 10:25:37;;;;;;;;;6.25;3.00;;;;;10.02;67.90;99105.09;6341484;22;45203;-60
2022/11/22 10:28:33;;;;;;;;;2.00;1.00;;;;;10.07;68.10;99107.53;6341501;22;45253;-60
2022/11/22 10:31:13;;;;;;;;;2.25;2.00;;;;;10.19;67.68;99114.13;6313758;22;45246;-60
2022/11/22 10:33:56;;;;;;;;;3.50;1.75;;;;;10.28;67.64;99126.03;6341228;22;45400;-59
2022/11/22 10:36:38;;;;;;;;;3.25;1.25;;;;;10.35;67.41;99115.22;6341224;22;45225;-59
2022/11/22 10:39:24;;;;;;;;;4.00;1.50;;;;;10.42;67.23;99109.78;6341283;22;45180;-59
2022/11/22 10:42:07;;;;;;;;;5.25;2.50;;;;;10.44;67.30;99102.66;6341229;22;45328;-59
2022/11/22 10:44:49;;;;;;;;;3.50;2.00;;;;;10.49;67.15;99108.59;6341886;22;45269;-59
2022/11/22 10:47:14;;;;;;;;;5.00;4.00;;;;;10.59;67.09;99096.81;6339635;22;46144;-60
2022/11/22 10:49:51;;;;;;;;;3.75;2.00;;;;;10.69;67.05;99119.16;6340537;22;45143;-59
2022/11/22 10:52:50;;;;;;;;;5.50;2.50;;;;;10.76;66.31;99130.28;6341712;22;45211;-60
2022/11/22 10:55:27;;;;;;;;;3.00;2.00;;;;;10.85;66.77;99127.25;6341412;22;45495;-59
2022/11/22 10:58:30;;;;;;;;;4.50;1.75;;;;;10.94;66.43;99128.66;6340606;22;46012;-59
2022/11/22 11:01:12;;;;;;;;;3.25;1.75;;;;;11.00;66.27;99091.59;6340913;22;45244;-59
2022/11/22 11:03:42;;;;;;;;;4.25;2.50;;;;;11.19;66.29;99125.00;6341243;22;45289;-61
2022/11/22 11:06:21;;;;;;;;;4.00;2.00;;;;;11.29;65.69;99105.28;6341386;22;45380;-59
2022/11/22 11:08:53;;;;;;;;;4.00;2.00;;;;;11.41;65.33;99117.06;6340165;22;46096;-60
2022/11/22 11:11:21;;;;;;;;;7.00;2.25;;;;;11.49;64.98;99128.09;6340396;22;45217;-59
2022/11/22 11:13:53;;;;;;;;;5.50;2.25;;;;;11.60;64.85;99125.00;6341171;22;45339;-60
2022/11/22 11:16:22;;;;;;;;;5.00;2.50;;;;;11.70;65.02;99125.44;6340981;22;45151;-60
2022/11/22 11:18:55;;;;;;;;;2.00;2.00;;;;;11.76;64.73;99140.09;6340050;22;46306;-61
2022/11/22 11:21:21;;;;;;;;;0.25;0.25;;;;;11.86;64.38;99134.38;6340484;22;45223;-60
2022/11/22 11:23:47;;;;;;;;;1.00;1.00;;;;;11.90;64.18;99115.78;6342459;22;45412;-61
2022/11/22 11:26:34;;;;;;;;;5.50;2.25;;;;;12.00;64.21;99117.13;6342489;22;45245;-60
2022/11/22 11:29:17;;;;;;;;;5.50;3.75;;;;;12.10;63.76;99133.34;6341499;22;45249;-60
2022/11/22 11:31:45;;;;;;;;;4.25;3.00;;;;;12.15;63.62;99126.06;6340193;22;45246;-60
2022/11/22 11:34:19;;;;;;;;;4.25;1.75;;;;;12.17;63.37;99122.44;6340780;22;45284;-60
2022/11/22 11:36:45;;;;;;;;;2.50;1.00;;;;;12.21;63.01;99133.69;6342140;22;45260;-60
2022/11/22 11:39:20;;;;;;;;;5.00;2.00;;;;;12.28;63.22;99135.13;6341316;22;45880;-61
2022/11/22 11:41:46;;;;;;;;;5.50;2.25;;;;;12.31;62.98;99132.34;6342225;22;45357;-60
2022/11/22 11:44:30;;;;;;;;;1.25;1.25;;;;;12.42;63.41;99136.25;6340317;22;45355;-60
2022/11/22 11:46:56;;;;;;;;;4.25;2.00;;;;;12.45;63.43;99128.19;6341666;22;45395;-60
2022/11/22 11:49:28;;;;;;;;;2.25;1.00;;;;;12.52;62.88;99119.91;6341059;22;46150;-61
2022/11/22 11:51:56;;;;;;;;;2.25;0.75;;;;;12.63;62.88;99113.31;6341749;22;45314;-60
2022/11/22 11:54:25;;;;;;;;;3.00;1.00;;;;;12.67;62.59;99118.34;6342547;22;45276;-60
2022/11/22 11:57:00;;;;;;;;;2.75;1.00;;;;;12.76;62.85;99121.47;6341494;22;45397;-63
2022/11/22 11:59:37;;;;;;;;;1.00;1.00;;;;;12.81;62.40;99119.44;6341304;22;46126;-63
2022/11/22 12:02:23;;;;;;;;;3.50;2.00;;;;;12.88;62.82;99128.78;6341871;22;45325;-61